Time;durP1;ratioP1;P1;durP2;ratioP2;P2;SDS_P1;SDS_P2;PMS_P1;PMS_P2;Temp;Humidity;BMP_temperature;BMP_pressure;BME280_temperature;BME280_humidity;BME280_pressure;Samples;Min_cycle;Max_cycle;Signal;HPM_P1;HPM_P2
2022/12/04 00:14:30;;;;;;;4.40;3.73;;;;;;;2.42;40.20;102349.56;31340722;28;20459;-73
2022/12/04 00:29:32;;;;;;;3.57;2.73;;;;;;;1.93;38.71;102340.63;31330018;28;20061;-73
2022/12/04 00:44:34;;;;;;;3.57;2.70;;;;;;;2.08;38.02;102368.94;31337593;28;20064;-71
2022/12/04 00:59:37;;;;;;;2.17;1.93;;;;;;;1.89;37.83;102377.16;31332461;28;20057;-70
2022/12/04 01:14:39;;;;;;;2.90;2.67;;;;;;;2.18;37.49;102379.41;31342258;28;20076;-73
2022/12/04 01:29:41;;;;;;;2.13;1.87;;;;;;;1.80;36.61;102362.91;31357680;28;20081;-74
2022/12/04 01:45:03;;;;;;;2.87;2.20;;;;;;;1.61;36.28;102366.56;31345852;28;20078;-73
2022/12/04 02:00:10;;;;;;;2.37;2.17;;;;;;;1.62;37.30;102365.47;31341801;28;20049;-72
2022/12/04 02:15:27;;;;;;;2.40;1.77;;;;;;;1.19;37.37;102407.06;31337725;28;20041;-73
2022/12/04 02:30:31;;;;;;;1.87;1.77;;;;;;;1.12;37.03;102401.34;31357591;28;20053;-69
2022/12/04 02:45:50;;;;;;;3.03;2.47;;;;;;;1.08;36.84;102400.34;31337123;28;20069;-70
2022/12/04 03:00:56;;;;;;;2.90;2.70;;;;;;;1.20;37.20;102400.63;31336712;28;20053;-68
2022/12/04 03:16:08;;;;;;;1.80;1.70;;;;;;;1.41;36.53;102399.13;31322157;28;20041;-71
2022/12/04 03:31:11;;;;;;;3.97;3.17;;;;;;;1.47;37.71;102397.09;31322252;28;20045;-69
2022/12/04 03:46:28;;;;;;;1.90;1.80;;;;;;;1.69;37.86;102384.56;31336452;28;20451;-69
2022/12/04 04:01:37;;;;;;;2.53;2.33;;;;;;;1.80;35.57;102411.91;31323213;28;20048;-70
2022/12/04 04:32:12;;;;;;;2.23;2.10;;;;;;;1.20;35.31;102432.72;31322178;28;20055;-70
2022/12/04 04:47:29;;;;;;;1.80;1.70;;;;;;;1.13;35.13;102445.72;31327809;28;20477;-70
2022/12/04 05:02:32;;;;;;;2.63;2.43;;;;;;;1.07;34.88;102447.69;31328070;28;20072;-74
2022/12/04 05:17:35;;;;;;;13.10;1.87;;;;;;;0.66;35.18;102463.69;31334770;28;20072;-72
2022/12/04 05:32:37;;;;;;;2.30;2.10;;;;;;;1.03;35.20;102468.88;31333209;28;20061;-70
2022/12/04 05:47:40;;;;;;;3.03;2.30;;;;;;;1.62;34.12;102475.22;31323707;28;20049;-73
2022/12/04 06:02:42;;;;;;;2.93;2.20;;;;;;;4.11;32.22;102484.84;31346456;28;20064;-75
2022/12/04 06:17:44;;;;;;;3.00;2.70;;;;;;;5.22;29.78;102519.91;31335836;28;20148;-75
2022/12/04 06:32:45;;;;;;;5.37;2.37;;;;;;;5.63;27.66;102481.53;31355589;28;20060;-73
2022/12/04 06:47:47;;;;;;;1.77;1.50;;;;;;;6.67;27.68;102471.47;31345053;28;20701;-75
2022/12/04 07:02:49;;;;;;;2.03;1.90;;;;;;;6.76;26.26;102484.88;31365482;28;20056;-74
2022/12/04 07:17:51;;;;;;;4.93;2.70;;;;;;;8.07;24.71;102499.00;31328260;28;20051;-74
2022/12/04 07:32:53;;;;;;;2.20;2.00;;;;;;;8.22;24.35;102522.66;31339530;28;20060;-76
2022/12/04 07:47:55;;;;;;;1.93;1.80;;;;;;;9.35;24.59;102518.66;31335414;28;20057;-73
2022/12/04 08:02:57;;;;;;;2.77;1.77;;;;;;;8.76;23.13;102514.06;31334766;28;20551;-77
2022/12/04 08:17:59;;;;;;;3.00;1.73;;;;;;;9.59;24.01;102513.03;31322118;28;20057;-74
2022/12/04 08:33:01;;;;;;;1.63;1.53;;;;;;;10.33;22.62;102492.16;31345764;28;20057;-75
2022/12/04 08:48:04;;;;;;;6.40;2.50;;;;;;;10.12;22.68;102491.69;31322634;28;20101;-74
2022/12/04 09:03:06;;;;;;;1.83;1.53;;;;;;;9.84;23.67;102456.63;31318818;28;20041;-77
2022/12/04 09:18:08;;;;;;;5.00;2.17;;;;;;;10.77;21.29;102456.47;31338704;28;20100;-74
2022/12/04 09:33:10;;;;;;;3.63;2.00;;;;;;;11.10;20.63;102437.56;31355219;28;20045;-74
2022/12/04 09:48:17;;;;;;;6.27;2.17;;;;;;;11.45;20.83;102440.03;31361795;28;20095;-75
2022/12/04 10:03:24;;;;;;;4.60;1.47;;;;;;;9.91;22.63;102425.00;31370163;28;20142;-73
2022/12/04 10:18:35;;;;;;;4.20;2.10;;;;;;;10.87;21.21;102417.81;31338260;28;20555;-76
2022/12/04 10:33:42;;;;;;;3.60;1.90;;;;;;;10.64;21.69;102404.22;31349604;28;20053;-74
2022/12/04 10:48:49;;;;;;;2.77;2.20;;;;;;;11.83;19.99;102409.06;31356860;28;20056;-76
2022/12/04 11:04:00;;;;;;;4.30;2.40;;;;;;;10.96;20.87;102414.84;31352057;28;20118;-74
2022/12/04 11:19:02;;;;;;;3.80;2.70;;;;;;;10.97;20.87;102391.94;31377520;28;20060;-71
2022/12/04 11:34:08;;;;;;;4.20;2.33;;;;;;;10.48;21.69;102407.06;31355252;28;20060;-71
2022/12/04 11:49:19;;;;;;;;;;;;;;;10.52;21.74;102402.50;31315843;28;20073;-72
2022/12/04 12:04:49;;;;;;;6.70;2.13;;;;;;;11.75;20.50;102401.19;31322965;28;21667;-73
2022/12/04 12:20:13;;;;;;;4.80;2.10;;;;;;;9.99;20.88;102400.69;31343507;28;20048;-74
2022/12/04 12:35:28;;;;;;;8.97;2.30;;;;;;;8.81;21.88;102419.03;31348225;28;20099;-71
2022/12/04 12:50:49;;;;;;;6.63;2.70;;;;;;;6.51;24.63;102413.88;31373881;28;20053;-70
2022/12/04 13:06:17;;;;;;;1.73;1.63;;;;;;;5.56;25.32;102422.78;31358382;28;20492;-73
2022/12/04 13:21:34;;;;;;;2.40;2.20;;;;;;;5.31;25.49;102431.81;31356180;28;20060;-75
2022/12/04 13:36:57;;;;;;;10.37;2.90;;;;;;;5.57;25.09;102426.25;31344023;28;20064;-72
2022/12/04 13:52:01;;;;;;;8.40;3.83;;;;;;;5.33;25.71;102435.75;31356539;28;20053;-72
2022/12/04 14:07:04;;;;;;;45.70;21.43;;;;;;;5.58;26.04;102420.53;31367432;28;20049;-73
2022/12/04 14:22:25;;;;;;;4.30;3.70;;;;;;;5.01;26.19;102412.94;31359696;28;20052;-74
2022/12/04 14:37:33;;;;;;;15.07;3.40;;;;;;;4.85;26.82;102409.22;31363235;28;20057;-73
2022/12/04 14:52:50;;;;;;;6.37;3.33;;;;;;;4.90;27.14;102419.81;31360435;28;20079;-74
2022/12/04 15:08:04;;;;;;;12.70;3.93;;;;;;;4.46;27.59;102413.00;31343942;28;20114;-74
2022/12/04 15:23:06;;;;;;;3.87;3.10;;;;;;;3.98;28.92;102434.75;31329859;28;20398;-74
2022/12/04 15:38:12;;;;;;;4.20;3.43;;;;;;;3.74;29.12;102440.59;31333047;28;20489;-75
2022/12/04 15:53:23;;;;;;;3.90;2.17;;;;;;;3.22;30.10;102439.69;31336132;28;20063;-75
2022/12/04 16:08:37;;;;;;;4.40;2.60;;;;;;;3.32;29.74;102434.00;31337340;28;20057;-75
2022/12/04 16:23:39;;;;;;;5.93;2.70;;;;;;;3.02;30.44;102441.84;31326630;28;20041;-74
2022/12/04 16:38:41;;;;;;;3.23;2.30;;;;;;;2.75;31.67;102452.75;31351517;28;20534;-74
2022/12/04 16:53:43;;;;;;;4.60;2.17;;;;;;;2.53;32.57;102444.75;31317141;28;20084;-74
2022/12/04 17:08:45;;;;;;;3.27;2.03;;;;;;;2.53;32.67;102444.75;31333216;28;20057;-75
2022/12/04 17:23:47;;;;;;;2.33;2.13;;;;;;;2.22;33.66;102442.81;31329647;28;20064;-73
2022/12/04 17:38:55;;;;;;;3.60;3.30;;;;;;;1.98;34.42;102435.06;31336844;28;20091;-73
2022/12/04 17:53:58;;;;;;;2.30;2.13;;;;;;;1.60;35.08;102433.78;31334207;28;20176;-72
2022/12/04 18:09:00;;;;;;;3.07;2.77;;;;;;;1.85;34.91;102445.81;31319919;28;20135;-71
2022/12/04 18:24:05;;;;;;;2.43;2.33;;;;;;;0.87;36.42;102497.00;31371944;28;20045;-71
2022/12/04 18:39:12;;;;;;;3.93;2.63;;;;;;;1.39;37.00;102454.84;31335066;28;20053;-70
2022/12/04 18:54:23;;;;;;;3.63;3.20;;;;;;;1.40;36.94;102467.13;31324180;28;20512;-70
2022/12/04 19:09:30;;;;;;;4.00;3.63;;;;;;;1.44;37.59;102473.44;31334197;28;20466;-70
2022/12/04 19:24:52;;;;;;;4.28;3.63;;;;;;;0.77;38.78;102491.81;31316450;28;20059;-71
2022/12/04 19:39:53;;;;;;;6.63;2.47;;;;;;;1.25;38.35;102470.88;31336245;28;20084;-71
2022/12/04 19:54:56;;;;;;;2.70;2.47;;;;;;;1.13;38.11;102477.81;31313345;28;20136;-72
2022/12/04 20:09:58;;;;;;;5.63;3.13;;;;;;;1.07;38.37;102468.31;31336930;28;20060;-70
2022/12/04 20:25:00;;;;;;;3.40;3.10;;;;;;;0.82;39.22;102483.72;31317948;28;20411;-71
2022/12/04 20:40:06;;;;;;;6.60;3.50;;;;;;;1.07;38.95;102474.44;31315918;28;20147;-70
2022/12/04 20:55:09;;;;;;;4.80;2.83;;;;;;;0.50;40.28;102481.06;31327601;28;20045;-72
2022/12/04 21:10:11;;;;;;;4.50;3.43;;;;;;;0.48;40.63;102467.97;31317625;28;20045;-70
2022/12/04 21:25:14;;;;;;;2.43;2.33;;;;;;;0.39;40.70;102444.91;31330059;28;20068;-72
2022/12/04 21:40:16;;;;;;;6.33;2.43;;;;;;;0.54;40.15;102433.94;31321606;28;20144;-72
2022/12/04 21:55:18;;;;;;;2.63;2.20;;;;;;;0.56;40.53;102416.53;31328159;28;20136;-71
2022/12/04 22:10:20;;;;;;;2.77;2.57;;;;;;;0.45;40.12;102414.34;31349861;28;20052;-70
2022/12/04 22:25:22;;;;;;;3.80;3.50;;;;;;;0.45;40.51;102409.00;31345207;28;20366;-73
2022/12/04 22:40:23;;;;;;;2.83;2.17;;;;;;;0.10;40.44;102413.81;31334800;28;20069;-70
2022/12/04 22:55:25;;;;;;;3.77;2.77;;;;;;;0.10;40.64;102391.66;31339752;28;20053;-71
2022/12/04 23:10:28;;;;;;;2.47;2.27;;;;;;;-0.24;41.22;102389.28;31335640;28;20141;-71
2022/12/04 23:25:29;;;;;;;1.80;1.70;;;;;;;-0.48;41.45;102387.47;31340519;28;20087;-70
2022/12/04 23:40:31;;;;;;;2.73;2.53;;;;;;;-0.15;40.62;102399.00;31329922;28;20056;-70
2022/12/04 23:55:33;;;;;;;2.90;2.70;;;;;;;-0.15;40.76;102400.88;31356219;28;20045;-71
